sensor_id;sensor_type;location;lat;lon;timestamp;P1;durP1;ratioP1;P2;durP2;ratioP2
35839;SDS011;35514;50.504;30.500;2023-10-19T00:00:31;24.75;;;11.18;;
35839;SDS011;35514;50.504;30.500;2023-10-19T00:03:04;26.67;;;10.75;;
35839;SDS011;35514;50.504;30.500;2023-10-19T00:05:33;28.40;;;10.85;;
35839;SDS011;35514;50.504;30.500;2023-10-19T00:08:01;31.10;;;11.27;;
35839;SDS011;35514;50.504;30.500;2023-10-19T00:10:32;21.45;;;11.15;;
35839;SDS011;35514;50.504;30.500;2023-10-19T00:13:03;24.58;;;11.40;;
35839;SDS011;35514;50.504;30.500;2023-10-19T00:15:30;32.65;;;11.10;;
35839;SDS011;35514;50.504;30.500;2023-10-19T00:18:00;26.13;;;11.95;;
35839;SDS011;35514;50.504;30.500;2023-10-19T00:20:41;28.92;;;11.15;;
35839;SDS011;35514;50.504;30.500;2023-10-19T00:23:17;27.70;;;10.85;;
35839;SDS011;35514;50.504;30.500;2023-10-19T00:25:50;32.27;;;12.70;;
35839;SDS011;35514;50.504;30.500;2023-10-19T00:28:18;28.10;;;11.98;;
35839;SDS011;35514;50.504;30.500;2023-10-19T00:30:45;25.60;;;11.00;;
35839;SDS011;35514;50.504;30.500;2023-10-19T00:33:15;29.27;;;11.95;;
35839;SDS011;35514;50.504;30.500;2023-10-19T00:35:46;27.13;;;10.98;;
35839;SDS011;35514;50.504;30.500;2023-10-19T00:38:26;30.17;;;11.60;;
35839;SDS011;35514;50.504;30.500;2023-10-19T00:41:06;29.58;;;11.05;;
35839;SDS011;35514;50.504;30.500;2023-10-19T00:43:38;27.92;;;11.40;;
35839;SDS011;35514;50.504;30.500;2023-10-19T00:46:10;32.55;;;11.88;;
35839;SDS011;35514;50.504;30.500;2023-10-19T00:48:53;34.50;;;11.18;;
35839;SDS011;35514;50.504;30.500;2023-10-19T00:51:22;31.58;;;11.90;;
35839;SDS011;35514;50.504;30.500;2023-10-19T00:54:00;35.20;;;12.32;;
35839;SDS011;35514;50.504;30.500;2023-10-19T00:56:32;33.00;;;11.38;;
35839;SDS011;35514;50.504;30.500;2023-10-19T00:59:00;33.90;;;11.93;;
35839;SDS011;35514;50.504;30.500;2023-10-19T01:01:38;31.17;;;12.30;;
35839;SDS011;35514;50.504;30.500;2023-10-19T01:04:10;29.08;;;11.77;;
35839;SDS011;35514;50.504;30.500;2023-10-19T01:06:42;31.98;;;11.32;;
35839;SDS011;35514;50.504;30.500;2023-10-19T01:09:11;24.02;;;10.73;;
35839;SDS011;35514;50.504;30.500;2023-10-19T01:11:41;28.13;;;11.57;;
35839;SDS011;35514;50.504;30.500;2023-10-19T01:14:18;29.85;;;11.18;;
35839;SDS011;35514;50.504;30.500;2023-10-19T01:16:46;29.38;;;12.00;;
35839;SDS011;35514;50.504;30.500;2023-10-19T01:19:15;30.77;;;11.80;;
35839;SDS011;35514;50.504;30.500;2023-10-19T01:21:46;24.75;;;11.00;;
35839;SDS011;35514;50.504;30.500;2023-10-19T01:24:19;30.20;;;12.23;;
35839;SDS011;35514;50.504;30.500;2023-10-19T01:26:54;31.30;;;12.13;;
35839;SDS011;35514;50.504;30.500;2023-10-19T01:29:23;32.90;;;12.27;;
35839;SDS011;35514;50.504;30.500;2023-10-19T01:31:54;27.50;;;12.60;;
35839;SDS011;35514;50.504;30.500;2023-10-19T01:34:32;31.67;;;11.68;;
35839;SDS011;35514;50.504;30.500;2023-10-19T01:37:01;25.77;;;12.07;;
35839;SDS011;35514;50.504;30.500;2023-10-19T01:39:32;26.98;;;11.75;;
35839;SDS011;35514;50.504;30.500;2023-10-19T01:42:01;37.13;;;14.93;;
35839;SDS011;35514;50.504;30.500;2023-10-19T01:44:31;27.48;;;11.73;;
35839;SDS011;35514;50.504;30.500;2023-10-19T01:46:59;25.65;;;10.80;;
35839;SDS011;35514;50.504;30.500;2023-10-19T01:49:27;31.10;;;12.65;;
35839;SDS011;35514;50.504;30.500;2023-10-19T01:51:57;33.70;;;14.13;;
35839;SDS011;35514;50.504;30.500;2023-10-19T01:54:24;28.83;;;12.43;;
35839;SDS011;35514;50.504;30.500;2023-10-19T01:56:54;30.05;;;13.40;;
35839;SDS011;35514;50.504;30.500;2023-10-19T01:59:23;37.13;;;12.35;;
35839;SDS011;35514;50.504;30.500;2023-10-19T02:01:53;27.85;;;12.27;;
35839;SDS011;35514;50.504;30.500;2023-10-19T02:04:21;33.10;;;12.80;;
35839;SDS011;35514;50.504;30.500;2023-10-19T02:06:49;24.75;;;12.15;;
35839;SDS011;35514;50.504;30.500;2023-10-19T02:09:18;34.97;;;13.13;;
35839;SDS011;35514;50.504;30.500;2023-10-19T02:11:50;28.67;;;12.98;;
35839;SDS011;35514;50.504;30.500;2023-10-19T02:14:20;24.17;;;12.27;;
35839;SDS011;35514;50.504;30.500;2023-10-19T02:16:49;31.55;;;12.43;;
35839;SDS011;35514;50.504;30.500;2023-10-19T02:19:18;31.45;;;13.52;;
35839;SDS011;35514;50.504;30.500;2023-10-19T02:21:47;33.65;;;13.07;;
35839;SDS011;35514;50.504;30.500;2023-10-19T02:24:14;29.70;;;13.18;;
35839;SDS011;35514;50.504;30.500;2023-10-19T02:26:43;30.73;;;13.50;;
35839;SDS011;35514;50.504;30.500;2023-10-19T02:29:10;33.55;;;13.30;;
35839;SDS011;35514;50.504;30.500;2023-10-19T02:31:40;37.72;;;14.82;;
35839;SDS011;35514;50.504;30.500;2023-10-19T02:34:07;29.65;;;12.45;;
35839;SDS011;35514;50.504;30.500;2023-10-19T02:36:37;31.50;;;13.25;;
35839;SDS011;35514;50.504;30.500;2023-10-19T02:39:06;26.10;;;12.40;;
35839;SDS011;35514;50.504;30.500;2023-10-19T02:41:35;35.13;;;13.70;;
35839;SDS011;35514;50.504;30.500;2023-10-19T02:44:02;33.53;;;13.48;;
35839;SDS011;35514;50.504;30.500;2023-10-19T02:46:36;43.67;;;14.33;;
35839;SDS011;35514;50.504;30.500;2023-10-19T02:49:07;33.28;;;12.43;;
35839;SDS011;35514;50.504;30.500;2023-10-19T02:51:38;31.95;;;12.50;;
35839;SDS011;35514;50.504;30.500;2023-10-19T02:54:05;26.40;;;13.35;;
35839;SDS011;35514;50.504;30.500;2023-10-19T02:56:34;32.70;;;12.80;;
35839;SDS011;35514;50.504;30.500;2023-10-19T02:59:03;33.83;;;12.82;;
35839;SDS011;35514;50.504;30.500;2023-10-19T03:01:31;33.28;;;13.50;;
35839;SDS011;35514;50.504;30.500;2023-10-19T03:04:01;26.40;;;11.18;;
35839;SDS011;35514;50.504;30.500;2023-10-19T03:06:30;29.58;;;13.00;;
35839;SDS011;35514;50.504;30.500;2023-10-19T03:08:59;33.38;;;13.43;;
35839;SDS011;35514;50.504;30.500;2023-10-19T03:11:27;32.90;;;13.07;;
35839;SDS011;35514;50.504;30.500;2023-10-19T03:13:55;29.48;;;12.65;;
35839;SDS011;35514;50.504;30.500;2023-10-19T03:16:23;32.42;;;12.20;;
35839;SDS011;35514;50.504;30.500;2023-10-19T03:18:56;32.08;;;13.13;;
35839;SDS011;35514;50.504;30.500;2023-10-19T03:21:24;29.48;;;11.50;;
35839;SDS011;35514;50.504;30.500;2023-10-19T03:23:55;28.42;;;13.32;;
35839;SDS011;35514;50.504;30.500;2023-10-19T03:26:23;29.92;;;12.30;;
35839;SDS011;35514;50.504;30.500;2023-10-19T03:28:54;38.90;;;12.75;;
35839;SDS011;35514;50.504;30.500;2023-10-19T03:33:56;32.17;;;12.23;;
35839;SDS011;35514;50.504;30.500;2023-10-19T03:36:25;29.15;;;11.55;;
35839;SDS011;35514;50.504;30.500;2023-10-19T03:38:52;34.50;;;12.00;;
35839;SDS011;35514;50.504;30.500;2023-10-19T03:41:22;25.15;;;11.43;;
35839;SDS011;35514;50.504;30.500;2023-10-19T03:43:53;30.63;;;11.63;;
35839;SDS011;35514;50.504;30.500;2023-10-19T03:46:23;33.88;;;12.85;;
35839;SDS011;35514;50.504;30.500;2023-10-19T03:48:55;25.83;;;12.07;;
35839;SDS011;35514;50.504;30.500;2023-10-19T03:51:25;32.78;;;13.13;;
35839;SDS011;35514;50.504;30.500;2023-10-19T03:53:53;36.15;;;14.90;;
35839;SDS011;35514;50.504;30.500;2023-10-19T03:56:29;33.05;;;12.48;;
35839;SDS011;35514;50.504;30.500;2023-10-19T03:58:59;34.10;;;13.43;;
35839;SDS011;35514;50.504;30.500;2023-10-19T04:01:27;31.13;;;13.45;;
35839;SDS011;35514;50.504;30.500;2023-10-19T04:03:58;34.53;;;13.20;;
35839;SDS011;35514;50.504;30.500;2023-10-19T04:06:27;33.80;;;13.52;;
35839;SDS011;35514;50.504;30.500;2023-10-19T04:08:55;40.83;;;14.38;;
35839;SDS011;35514;50.504;30.500;2023-10-19T04:11:23;32.10;;;13.82;;
35839;SDS011;35514;50.504;30.500;2023-10-19T04:14:00;41.92;;;14.82;;
35839;SDS011;35514;50.504;30.500;2023-10-19T04:16:30;34.47;;;13.80;;
35839;SDS011;35514;50.504;30.500;2023-10-19T04:19:03;39.95;;;14.40;;
35839;SDS011;35514;50.504;30.500;2023-10-19T04:21:31;36.92;;;15.07;;
35839;SDS011;35514;50.504;30.500;2023-10-19T04:24:05;31.57;;;13.13;;
35839;SDS011;35514;50.504;30.500;2023-10-19T04:26:33;37.88;;;15.55;;
35839;SDS011;35514;50.504;30.500;2023-10-19T04:29:05;42.75;;;14.45;;
35839;SDS011;35514;50.504;30.500;2023-10-19T04:31:38;36.67;;;14.48;;
35839;SDS011;35514;50.504;30.500;2023-10-19T04:34:17;39.85;;;15.35;;
35839;SDS011;35514;50.504;30.500;2023-10-19T04:36:47;36.22;;;15.15;;
35839;SDS011;35514;50.504;30.500;2023-10-19T04:39:15;40.58;;;15.45;;
35839;SDS011;35514;50.504;30.500;2023-10-19T04:41:45;36.28;;;15.32;;
35839;SDS011;35514;50.504;30.500;2023-10-19T04:44:16;36.95;;;14.98;;
35839;SDS011;35514;50.504;30.500;2023-10-19T04:46:44;35.38;;;14.57;;
35839;SDS011;35514;50.504;30.500;2023-10-19T04:49:14;38.38;;;15.15;;
35839;SDS011;35514;50.504;30.500;2023-10-19T04:51:43;34.90;;;14.55;;
35839;SDS011;35514;50.504;30.500;2023-10-19T04:54:11;31.10;;;14.02;;
35839;SDS011;35514;50.504;30.500;2023-10-19T04:56:40;32.83;;;15.05;;
35839;SDS011;35514;50.504;30.500;2023-10-19T04:59:08;36.92;;;15.70;;
35839;SDS011;35514;50.504;30.500;2023-10-19T05:01:37;33.30;;;15.27;;
35839;SDS011;35514;50.504;30.500;2023-10-19T05:04:07;34.60;;;14.30;;
35839;SDS011;35514;50.504;30.500;2023-10-19T05:06:34;36.20;;;15.35;;
35839;SDS011;35514;50.504;30.500;2023-10-19T05:09:02;45.72;;;18.27;;
35839;SDS011;35514;50.504;30.500;2023-10-19T05:11:30;41.88;;;16.60;;
35839;SDS011;35514;50.504;30.500;2023-10-19T05:13:58;42.30;;;17.08;;
35839;SDS011;35514;50.504;30.500;2023-10-19T05:16:26;45.40;;;16.48;;
35839;SDS011;35514;50.504;30.500;2023-10-19T05:18:55;42.80;;;15.55;;
35839;SDS011;35514;50.504;30.500;2023-10-19T05:21:24;37.78;;;15.93;;
35839;SDS011;35514;50.504;30.500;2023-10-19T05:23:52;49.63;;;16.95;;
35839;SDS011;35514;50.504;30.500;2023-10-19T05:26:20;41.55;;;15.02;;
35839;SDS011;35514;50.504;30.500;2023-10-19T05:28:47;42.80;;;17.38;;
35839;SDS011;35514;50.504;30.500;2023-10-19T05:31:15;48.83;;;16.77;;
35839;SDS011;35514;50.504;30.500;2023-10-19T05:33:43;37.70;;;15.88;;
35839;SDS011;35514;50.504;30.500;2023-10-19T05:36:12;45.08;;;16.38;;
35839;SDS011;35514;50.504;30.500;2023-10-19T05:38:41;46.72;;;16.92;;
35839;SDS011;35514;50.504;30.500;2023-10-19T05:41:08;40.97;;;15.88;;
35839;SDS011;35514;50.504;30.500;2023-10-19T05:43:37;38.63;;;16.45;;
35839;SDS011;35514;50.504;30.500;2023-10-19T05:46:05;37.70;;;16.40;;
35839;SDS011;35514;50.504;30.500;2023-10-19T05:48:33;44.05;;;14.77;;
35839;SDS011;35514;50.504;30.500;2023-10-19T05:51:00;39.72;;;15.88;;
35839;SDS011;35514;50.504;30.500;2023-10-19T05:53:30;41.17;;;16.52;;
35839;SDS011;35514;50.504;30.500;2023-10-19T05:55:58;47.25;;;18.15;;
35839;SDS011;35514;50.504;30.500;2023-10-19T05:58:26;35.13;;;15.80;;
35839;SDS011;35514;50.504;30.500;2023-10-19T06:00:57;39.13;;;15.88;;
35839;SDS011;35514;50.504;30.500;2023-10-19T06:03:25;38.22;;;16.23;;
35839;SDS011;35514;50.504;30.500;2023-10-19T06:05:54;39.08;;;16.58;;
35839;SDS011;35514;50.504;30.500;2023-10-19T06:08:22;44.03;;;17.23;;
35839;SDS011;35514;50.504;30.500;2023-10-19T06:10:52;36.47;;;15.45;;
35839;SDS011;35514;50.504;30.500;2023-10-19T06:13:20;36.90;;;14.85;;
35839;SDS011;35514;50.504;30.500;2023-10-19T06:15:48;36.53;;;15.10;;
35839;SDS011;35514;50.504;30.500;2023-10-19T06:18:16;39.30;;;15.55;;
35839;SDS011;35514;50.504;30.500;2023-10-19T06:20:44;39.53;;;15.98;;
35839;SDS011;35514;50.504;30.500;2023-10-19T06:23:12;39.72;;;15.35;;
35839;SDS011;35514;50.504;30.500;2023-10-19T06:25:40;36.58;;;15.52;;
35839;SDS011;35514;50.504;30.500;2023-10-19T06:28:11;33.65;;;14.30;;
35839;SDS011;35514;50.504;30.500;2023-10-19T06:30:39;38.72;;;14.50;;
35839;SDS011;35514;50.504;30.500;2023-10-19T06:33:07;35.42;;;14.25;;
35839;SDS011;35514;50.504;30.500;2023-10-19T06:35:35;28.10;;;13.32;;
35839;SDS011;35514;50.504;30.500;2023-10-19T06:38:04;36.05;;;15.00;;
35839;SDS011;35514;50.504;30.500;2023-10-19T06:40:33;36.45;;;15.57;;
35839;SDS011;35514;50.504;30.500;2023-10-19T06:43:02;35.42;;;14.98;;
35839;SDS011;35514;50.504;30.500;2023-10-19T06:45:33;37.60;;;15.95;;
35839;SDS011;35514;50.504;30.500;2023-10-19T06:48:01;35.95;;;15.02;;
35839;SDS011;35514;50.504;30.500;2023-10-19T06:50:30;38.30;;;14.65;;
35839;SDS011;35514;50.504;30.500;2023-10-19T06:52:58;32.47;;;14.27;;
35839;SDS011;35514;50.504;30.500;2023-10-19T06:55:26;30.17;;;14.55;;
35839;SDS011;35514;50.504;30.500;2023-10-19T06:57:54;34.28;;;14.73;;
35839;SDS011;35514;50.504;30.500;2023-10-19T07:00:23;36.88;;;15.63;;
35839;SDS011;35514;50.504;30.500;2023-10-19T07:02:55;35.95;;;14.75;;
35839;SDS011;35514;50.504;30.500;2023-10-19T07:05:27;38.75;;;14.63;;
35839;SDS011;35514;50.504;30.500;2023-10-19T07:07:57;34.88;;;14.30;;
35839;SDS011;35514;50.504;30.500;2023-10-19T07:10:27;34.85;;;13.82;;
35839;SDS011;35514;50.504;30.500;2023-10-19T07:12:55;29.98;;;14.15;;
35839;SDS011;35514;50.504;30.500;2023-10-19T07:15:26;31.92;;;15.07;;
35839;SDS011;35514;50.504;30.500;2023-10-19T07:17:58;29.33;;;13.57;;
35839;SDS011;35514;50.504;30.500;2023-10-19T07:20:26;26.58;;;13.45;;
35839;SDS011;35514;50.504;30.500;2023-10-19T07:22:55;32.08;;;14.38;;
35839;SDS011;35514;50.504;30.500;2023-10-19T07:25:26;33.95;;;14.35;;
35839;SDS011;35514;50.504;30.500;2023-10-19T07:27:56;29.20;;;13.13;;
35839;SDS011;35514;50.504;30.500;2023-10-19T07:33:16;29.48;;;13.50;;
35839;SDS011;35514;50.504;30.500;2023-10-19T07:35:49;33.05;;;14.15;;
35839;SDS011;35514;50.504;30.500;2023-10-19T07:38:21;32.60;;;13.32;;
35839;SDS011;35514;50.504;30.500;2023-10-19T07:40:49;31.02;;;14.55;;
35839;SDS011;35514;50.504;30.500;2023-10-19T07:43:20;39.58;;;15.27;;
35839;SDS011;35514;50.504;30.500;2023-10-19T07:45:49;35.15;;;15.77;;
35839;SDS011;35514;50.504;30.500;2023-10-19T07:48:20;28.35;;;13.65;;
35839;SDS011;35514;50.504;30.500;2023-10-19T07:50:48;34.40;;;14.20;;
35839;SDS011;35514;50.504;30.500;2023-10-19T07:53:16;35.60;;;14.98;;
35839;SDS011;35514;50.504;30.500;2023-10-19T07:55:45;28.42;;;12.93;;
35839;SDS011;35514;50.504;30.500;2023-10-19T07:58:13;25.33;;;12.85;;
35839;SDS011;35514;50.504;30.500;2023-10-19T08:00:41;31.15;;;12.23;;
35839;SDS011;35514;50.504;30.500;2023-10-19T08:03:13;27.77;;;12.88;;
35839;SDS011;35514;50.504;30.500;2023-10-19T08:05:47;29.45;;;13.90;;
35839;SDS011;35514;50.504;30.500;2023-10-19T08:08:15;29.20;;;12.95;;
35839;SDS011;35514;50.504;30.500;2023-10-19T08:10:44;25.60;;;11.20;;
35839;SDS011;35514;50.504;30.500;2023-10-19T08:13:14;23.25;;;10.90;;
35839;SDS011;35514;50.504;30.500;2023-10-19T08:15:52;23.17;;;10.20;;
35839;SDS011;35514;50.504;30.500;2023-10-19T08:18:41;17.73;;;9.95;;
35839;SDS011;35514;50.504;30.500;2023-10-19T08:21:12;21.67;;;11.10;;
35839;SDS011;35514;50.504;30.500;2023-10-19T08:23:40;30.05;;;11.73;;
35839;SDS011;35514;50.504;30.500;2023-10-19T08:26:11;24.58;;;11.27;;
35839;SDS011;35514;50.504;30.500;2023-10-19T08:28:43;19.70;;;9.65;;
35839;SDS011;35514;50.504;30.500;2023-10-19T08:31:14;17.63;;;9.35;;
35839;SDS011;35514;50.504;30.500;2023-10-19T08:33:43;20.52;;;9.50;;
35839;SDS011;35514;50.504;30.500;2023-10-19T08:36:17;20.10;;;10.35;;
35839;SDS011;35514;50.504;30.500;2023-10-19T08:38:56;18.98;;;8.55;;
35839;SDS011;35514;50.504;30.500;2023-10-19T08:41:24;14.15;;;7.10;;
35839;SDS011;35514;50.504;30.500;2023-10-19T08:43:54;15.50;;;7.38;;
35839;SDS011;35514;50.504;30.500;2023-10-19T08:46:29;15.30;;;7.47;;
35839;SDS011;35514;50.504;30.500;2023-10-19T08:49:00;14.15;;;6.47;;
35839;SDS011;35514;50.504;30.500;2023-10-19T08:51:32;17.02;;;7.25;;
35839;SDS011;35514;50.504;30.500;2023-10-19T08:54:01;19.98;;;6.72;;
35839;SDS011;35514;50.504;30.500;2023-10-19T08:56:45;12.20;;;6.47;;
35839;SDS011;35514;50.504;30.500;2023-10-19T08:59:14;14.07;;;6.57;;
35839;SDS011;35514;50.504;30.500;2023-10-19T09:01:44;25.67;;;8.60;;
35839;SDS011;35514;50.504;30.500;2023-10-19T09:07:16;14.60;;;6.00;;
35839;SDS011;35514;50.504;30.500;2023-10-19T09:10:11;12.18;;;6.88;;
35839;SDS011;35514;50.504;30.500;2023-10-19T09:16:20;11.13;;;6.75;;
35839;SDS011;35514;50.504;30.500;2023-10-19T09:19:01;16.52;;;6.20;;
35839;SDS011;35514;50.504;30.500;2023-10-19T09:21:31;14.75;;;7.05;;
35839;SDS011;35514;50.504;30.500;2023-10-19T09:24:04;12.25;;;6.57;;
35839;SDS011;35514;50.504;30.500;2023-10-19T09:26:35;8.82;;;5.05;;
35839;SDS011;35514;50.504;30.500;2023-10-19T09:29:08;8.80;;;5.28;;
35839;SDS011;35514;50.504;30.500;2023-10-19T09:31:41;14.25;;;6.38;;
35839;SDS011;35514;50.504;30.500;2023-10-19T09:34:40;18.77;;;6.47;;
35839;SDS011;35514;50.504;30.500;2023-10-19T09:37:17;14.63;;;7.00;;
35839;SDS011;35514;50.504;30.500;2023-10-19T09:39:48;18.63;;;7.68;;
35839;SDS011;35514;50.504;30.500;2023-10-19T09:42:19;15.27;;;7.30;;
35839;SDS011;35514;50.504;30.500;2023-10-19T09:44:52;13.88;;;6.65;;
35839;SDS011;35514;50.504;30.500;2023-10-19T09:47:23;12.68;;;7.22;;
35839;SDS011;35514;50.504;30.500;2023-10-19T09:49:54;13.77;;;7.07;;
35839;SDS011;35514;50.504;30.500;2023-10-19T09:52:22;15.07;;;7.22;;
35839;SDS011;35514;50.504;30.500;2023-10-19T09:54:54;13.18;;;7.07;;
35839;SDS011;35514;50.504;30.500;2023-10-19T09:57:30;19.67;;;7.95;;
35839;SDS011;35514;50.504;30.500;2023-10-19T10:00:06;16.50;;;8.00;;
35839;SDS011;35514;50.504;30.500;2023-10-19T10:02:39;12.38;;;6.30;;
35839;SDS011;35514;50.504;30.500;2023-10-19T10:10:39;12.70;;;6.45;;
35839;SDS011;35514;50.504;30.500;2023-10-19T10:15:53;12.63;;;6.05;;
35839;SDS011;35514;50.504;30.500;2023-10-19T10:18:23;10.75;;;5.65;;
35839;SDS011;35514;50.504;30.500;2023-10-19T10:21:04;13.07;;;6.15;;
35839;SDS011;35514;50.504;30.500;2023-10-19T10:23:39;12.45;;;6.80;;
35839;SDS011;35514;50.504;30.500;2023-10-19T10:28:38;11.63;;;5.97;;
35839;SDS011;35514;50.504;30.500;2023-10-19T10:31:10;13.30;;;5.63;;
35839;SDS011;35514;50.504;30.500;2023-10-19T10:36:12;11.10;;;5.80;;
35839;SDS011;35514;50.504;30.500;2023-10-19T10:38:45;8.02;;;4.55;;
35839;SDS011;35514;50.504;30.500;2023-10-19T10:41:23;10.13;;;5.95;;
35839;SDS011;35514;50.504;30.500;2023-10-19T10:43:56;14.23;;;5.80;;
35839;SDS011;35514;50.504;30.500;2023-10-19T10:46:35;11.70;;;5.30;;
35839;SDS011;35514;50.504;30.500;2023-10-19T10:49:27;8.13;;;4.80;;
35839;SDS011;35514;50.504;30.500;2023-10-19T10:51:55;10.80;;;5.30;;
35839;SDS011;35514;50.504;30.500;2023-10-19T10:54:23;14.02;;;5.47;;
35839;SDS011;35514;50.504;30.500;2023-10-19T10:56:51;9.82;;;5.72;;
35839;SDS011;35514;50.504;30.500;2023-10-19T10:59:20;13.68;;;6.32;;
35839;SDS011;35514;50.504;30.500;2023-10-19T11:01:48;9.88;;;5.78;;
35839;SDS011;35514;50.504;30.500;2023-10-19T11:04:16;11.40;;;5.05;;
35839;SDS011;35514;50.504;30.500;2023-10-19T11:06:51;8.05;;;4.70;;
35839;SDS011;35514;50.504;30.500;2023-10-19T11:09:19;8.18;;;5.20;;
35839;SDS011;35514;50.504;30.500;2023-10-19T11:11:49;17.13;;;6.63;;
35839;SDS011;35514;50.504;30.500;2023-10-19T11:14:20;11.70;;;5.68;;
35839;SDS011;35514;50.504;30.500;2023-10-19T11:16:51;12.27;;;5.47;;
35839;SDS011;35514;50.504;30.500;2023-10-19T11:19:19;11.75;;;5.32;;
35839;SDS011;35514;50.504;30.500;2023-10-19T11:21:52;10.55;;;5.47;;
35839;SDS011;35514;50.504;30.500;2023-10-19T11:24:25;10.50;;;5.22;;
35839;SDS011;35514;50.504;30.500;2023-10-19T11:26:53;7.95;;;4.72;;
35839;SDS011;35514;50.504;30.500;2023-10-19T11:29:25;11.23;;;5.15;;
35839;SDS011;35514;50.504;30.500;2023-10-19T11:31:56;12.73;;;5.65;;
35839;SDS011;35514;50.504;30.500;2023-10-19T11:34:25;9.73;;;5.35;;
35839;SDS011;35514;50.504;30.500;2023-10-19T11:36:53;9.40;;;5.30;;
35839;SDS011;35514;50.504;30.500;2023-10-19T11:39:23;9.57;;;5.30;;
35839;SDS011;35514;50.504;30.500;2023-10-19T11:41:51;16.75;;;6.68;;
35839;SDS011;35514;50.504;30.500;2023-10-19T11:44:21;12.95;;;5.97;;
35839;SDS011;35514;50.504;30.500;2023-10-19T11:46:50;11.82;;;5.97;;
35839;SDS011;35514;50.504;30.500;2023-10-19T11:49:18;13.98;;;6.20;;
35839;SDS011;35514;50.504;30.500;2023-10-19T11:51:50;13.43;;;5.88;;
35839;SDS011;35514;50.504;30.500;2023-10-19T11:54:18;12.85;;;6.22;;
35839;SDS011;35514;50.504;30.500;2023-10-19T11:56:46;12.35;;;6.72;;
35839;SDS011;35514;50.504;30.500;2023-10-19T11:59:23;12.77;;;6.57;;
35839;SDS011;35514;50.504;30.500;2023-10-19T12:01:54;17.35;;;6.57;;
35839;SDS011;35514;50.504;30.500;2023-10-19T12:04:25;13.25;;;6.47;;
35839;SDS011;35514;50.504;30.500;2023-10-19T12:06:53;13.90;;;6.63;;
35839;SDS011;35514;50.504;30.500;2023-10-19T12:16:54;14.90;;;6.63;;
35839;SDS011;35514;50.504;30.500;2023-10-19T12:19:24;11.35;;;6.72;;
35839;SDS011;35514;50.504;30.500;2023-10-19T12:21:53;11.88;;;6.40;;
35839;SDS011;35514;50.504;30.500;2023-10-19T12:24:35;12.23;;;6.68;;
35839;SDS011;35514;50.504;30.500;2023-10-19T12:27:04;13.43;;;6.60;;
35839;SDS011;35514;50.504;30.500;2023-10-19T12:29:36;12.18;;;6.60;;
35839;SDS011;35514;50.504;30.500;2023-10-19T12:32:06;15.98;;;6.65;;
35839;SDS011;35514;50.504;30.500;2023-10-19T12:34:36;10.93;;;5.75;;
35839;SDS011;35514;50.504;30.500;2023-10-19T12:39:42;14.00;;;6.15;;
35839;SDS011;35514;50.504;30.500;2023-10-19T12:42:21;11.37;;;5.93;;
35839;SDS011;35514;50.504;30.500;2023-10-19T12:45:04;11.90;;;6.53;;
35839;SDS011;35514;50.504;30.500;2023-10-19T12:47:45;19.67;;;6.82;;
35839;SDS011;35514;50.504;30.500;2023-10-19T12:50:15;16.73;;;7.22;;
35839;SDS011;35514;50.504;30.500;2023-10-19T12:52:43;17.95;;;7.60;;
35839;SDS011;35514;50.504;30.500;2023-10-19T12:55:12;14.25;;;6.45;;
35839;SDS011;35514;50.504;30.500;2023-10-19T12:57:41;13.30;;;6.55;;
35839;SDS011;35514;50.504;30.500;2023-10-19T13:00:11;18.15;;;6.97;;
35839;SDS011;35514;50.504;30.500;2023-10-19T13:02:54;16.27;;;7.15;;
35839;SDS011;35514;50.504;30.500;2023-10-19T13:07:54;22.23;;;8.98;;
35839;SDS011;35514;50.504;30.500;2023-10-19T13:10:29;19.98;;;7.00;;
35839;SDS011;35514;50.504;30.500;2023-10-19T13:13:01;13.60;;;7.45;;
35839;SDS011;35514;50.504;30.500;2023-10-19T13:15:32;12.50;;;5.68;;
35839;SDS011;35514;50.504;30.500;2023-10-19T13:18:13;14.25;;;6.35;;
35839;SDS011;35514;50.504;30.500;2023-10-19T13:20:55;12.55;;;6.60;;
35839;SDS011;35514;50.504;30.500;2023-10-19T13:23:43;15.95;;;7.53;;
35839;SDS011;35514;50.504;30.500;2023-10-19T13:26:15;17.13;;;7.90;;
35839;SDS011;35514;50.504;30.500;2023-10-19T13:28:46;15.93;;;8.20;;
35839;SDS011;35514;50.504;30.500;2023-10-19T13:31:17;14.85;;;7.05;;
35839;SDS011;35514;50.504;30.500;2023-10-19T13:33:50;20.50;;;8.63;;
35839;SDS011;35514;50.504;30.500;2023-10-19T13:36:19;17.25;;;7.55;;
35839;SDS011;35514;50.504;30.500;2023-10-19T13:38:49;15.85;;;8.32;;
35839;SDS011;35514;50.504;30.500;2023-10-19T13:41:17;20.88;;;8.32;;
35839;SDS011;35514;50.504;30.500;2023-10-19T13:43:48;16.83;;;7.72;;
35839;SDS011;35514;50.504;30.500;2023-10-19T13:46:16;18.77;;;8.30;;
35839;SDS011;35514;50.504;30.500;2023-10-19T13:48:45;20.83;;;8.57;;
35839;SDS011;35514;50.504;30.500;2023-10-19T13:51:16;22.00;;;8.35;;
35839;SDS011;35514;50.504;30.500;2023-10-19T13:53:46;21.92;;;9.75;;
35839;SDS011;35514;50.504;30.500;2023-10-19T13:56:13;19.63;;;8.88;;
35839;SDS011;35514;50.504;30.500;2023-10-19T13:58:42;14.82;;;7.32;;
35839;SDS011;35514;50.504;30.500;2023-10-19T14:01:15;13.15;;;7.47;;
35839;SDS011;35514;50.504;30.500;2023-10-19T14:04:01;13.73;;;7.13;;
35839;SDS011;35514;50.504;30.500;2023-10-19T14:06:31;11.77;;;6.53;;
35839;SDS011;35514;50.504;30.500;2023-10-19T14:08:59;16.23;;;6.90;;
35839;SDS011;35514;50.504;30.500;2023-10-19T14:11:27;15.30;;;7.53;;
35839;SDS011;35514;50.504;30.500;2023-10-19T14:13:57;21.98;;;8.48;;
35839;SDS011;35514;50.504;30.500;2023-10-19T14:16:28;13.07;;;7.30;;
35839;SDS011;35514;50.504;30.500;2023-10-19T14:18:56;21.98;;;7.22;;
35839;SDS011;35514;50.504;30.500;2023-10-19T14:21:24;14.23;;;7.53;;
35839;SDS011;35514;50.504;30.500;2023-10-19T14:24:20;16.20;;;7.15;;
35839;SDS011;35514;50.504;30.500;2023-10-19T14:26:48;14.85;;;7.57;;
35839;SDS011;35514;50.504;30.500;2023-10-19T14:29:16;14.05;;;7.30;;
35839;SDS011;35514;50.504;30.500;2023-10-19T14:31:44;20.75;;;8.02;;
35839;SDS011;35514;50.504;30.500;2023-10-19T14:34:12;17.83;;;8.73;;
35839;SDS011;35514;50.504;30.500;2023-10-19T14:36:40;15.65;;;8.50;;
35839;SDS011;35514;50.504;30.500;2023-10-19T14:39:08;16.60;;;7.60;;
35839;SDS011;35514;50.504;30.500;2023-10-19T14:41:40;19.40;;;8.10;;
35839;SDS011;35514;50.504;30.500;2023-10-19T14:44:09;17.27;;;8.65;;
35839;SDS011;35514;50.504;30.500;2023-10-19T14:46:37;26.80;;;8.30;;
35839;SDS011;35514;50.504;30.500;2023-10-19T14:49:05;21.60;;;8.70;;
35839;SDS011;35514;50.504;30.500;2023-10-19T14:51:33;17.35;;;8.55;;
35839;SDS011;35514;50.504;30.500;2023-10-19T14:54:01;19.73;;;8.23;;
35839;SDS011;35514;50.504;30.500;2023-10-19T14:56:29;19.27;;;8.18;;
35839;SDS011;35514;50.504;30.500;2023-10-19T14:58:58;16.80;;;8.05;;
35839;SDS011;35514;50.504;30.500;2023-10-19T15:01:26;25.77;;;9.48;;
35839;SDS011;35514;50.504;30.500;2023-10-19T15:03:54;18.77;;;8.43;;
35839;SDS011;35514;50.504;30.500;2023-10-19T15:06:22;15.50;;;7.88;;
35839;SDS011;35514;50.504;30.500;2023-10-19T15:08:51;22.23;;;8.38;;
35839;SDS011;35514;50.504;30.500;2023-10-19T15:11:20;22.80;;;8.18;;